Great Falls International Airport
KGTF : now visible

Airfield :











YOU CAN JOIN US ON...

 
LOGIN :

Register | Disclaimer

   EN    FR    IT 

 









Legend :    VFR   Marginal VFR   IFR   Intensive IFR   Very Intensive IFR
Visi :
Ceiling :
>= 8 km
>= 3000ft
5 to 8 km
1000 to 3000 ft
1500m to 5 km
500 to 1000 ft
800 to 1500m
200 to 500 ft
< 800m
< 200 ft
Symbols :   Thunderstorms  Fog  Heavy snow  Heavy precipitations  Wind > 20 kt






- Airport Elevation : 3680 ft
- IATA code : GTF


KGTF - Great Falls International

CURRENT METAR :
  • 181953Z 04013KT 10SM FEW050 BKN070 OVC080 09/M03 A3019 RMK AO2 SLP243 T00941033 $

EXPIRED METARs :
  • 181853Z 34012KT 10SM OVC090 08/M04 A3017 RMK AO2 PK WND 36028/1804 SLP238 T00831039 $
  • 181753Z 35020G30KT 10SM OVC095 09/M05 A3014 RMK AO2 PK WND 34030/1744 SLP222 T00891050 10133 21011 $

TAF KGTF
Valid from the 18 at 19:00 until the 19 at 18:00 UTC


181905Z 1819/1918 35010G20KT P6SM BKN070 OVC090
FM182200 03019G27KT 5SM -RASN BR SCT010 OVC025
TEMPO 1901/1905 1/2SM SN FZFG SCT003 OVC008
FM190500 03014KT 2SM -SN BR SCT005 BKN015
PROB30 1906/1912 2SM -SN BR BKN005
FM191600 35012KT P6SM BKN018
KZLC FIR / North America



MET'MAP, your aeronautical weather chart ! - Copyright ORBIFLY December 2007 - Disclaimer

ORBIFLY MET'MAP TEAM :

Programming & Development : Alexandra Zaïnal
Concept & original design : Baudouin d'Aumeries
Assistance for programming : Marc-Olivier Méhu
Technical & hardware support : Manuel Goepfert

Contact : metmap@orbifly.com




SOURCES & CREDITS :

   NOAA       Earth
Advisory